sensor_id;sensor_type;location;lat;lon;timestamp;pressure;altitude;pressure_sealevel;temperature;humidity
33554;BME280;19885;42.208;24.952;2022-10-16T00:00:33;100618.84;;;12.14;71.18
33554;BME280;19885;42.208;24.952;2022-10-16T00:03:03;100620.56;;;12.12;70.86
33554;BME280;19885;42.208;24.952;2022-10-16T00:05:28;100628.28;;;12.03;71.77
33554;BME280;19885;42.208;24.952;2022-10-16T00:07:54;100623.88;;;11.99;71.43
33554;BME280;19885;42.208;24.952;2022-10-16T00:10:20;100635.22;;;12.04;72.50
33554;BME280;19885;42.208;24.952;2022-10-16T00:12:46;100633.44;;;11.97;72.64
33554;BME280;19885;42.208;24.952;2022-10-16T00:15:11;100630.72;;;11.91;72.46
33554;BME280;19885;42.208;24.952;2022-10-16T00:17:37;100630.72;;;11.91;73.82
33554;BME280;19885;42.208;24.952;2022-10-16T00:20:03;100635.88;;;11.86;73.65
33554;BME280;19885;42.208;24.952;2022-10-16T00:22:28;100636.81;;;11.93;73.80
33554;BME280;19885;42.208;24.952;2022-10-16T00:24:54;100634.19;;;11.90;72.81
33554;BME280;19885;42.208;24.952;2022-10-16T00:27:19;100631.59;;;11.93;73.00
33554;BME280;19885;42.208;24.952;2022-10-16T00:29:52;100641.16;;;11.91;72.50
33554;BME280;19885;42.208;24.952;2022-10-16T00:32:19;100637.63;;;11.87;72.63
33554;BME280;19885;42.208;24.952;2022-10-16T00:34:44;100636.69;;;11.84;72.04
33554;BME280;19885;42.208;24.952;2022-10-16T00:37:11;100638.41;;;11.79;72.17
33554;BME280;19885;42.208;24.952;2022-10-16T00:39:36;100641.78;;;11.72;72.16
33554;BME280;19885;42.208;24.952;2022-10-16T00:42:02;100636.50;;;11.69;72.76
33554;BME280;19885;42.208;24.952;2022-10-16T00:44:48;100639.00;;;11.64;73.37
33554;BME280;19885;42.208;24.952;2022-10-16T00:47:42;100646.78;;;11.60;73.16
33554;BME280;19885;42.208;24.952;2022-10-16T00:50:32;100648.41;;;11.52;72.89
33554;BME280;19885;42.208;24.952;2022-10-16T00:53:00;100651.84;;;11.51;72.87
33554;BME280;19885;42.208;24.952;2022-10-16T00:55:30;100635.22;;;11.44;72.62
33554;BME280;19885;42.208;24.952;2022-10-16T00:57:56;100648.13;;;11.35;72.89
33554;BME280;19885;42.208;24.952;2022-10-16T01:00:29;100652.38;;;11.30;72.24
33554;BME280;19885;42.208;24.952;2022-10-16T01:02:58;100664.47;;;11.23;72.71
33554;BME280;19885;42.208;24.952;2022-10-16T01:05:37;100645.06;;;11.09;72.78
33554;BME280;19885;42.208;24.952;2022-10-16T01:08:53;100662.44;;;11.09;72.05
33554;BME280;19885;42.208;24.952;2022-10-16T01:11:04;100673.84;;;11.15;72.89
33554;BME280;19885;42.208;24.952;2022-10-16T01:13:42;100673.94;;;11.20;73.37
33554;BME280;19885;42.208;24.952;2022-10-16T01:19:14;100680.75;;;11.10;72.57
33554;BME280;19885;42.208;24.952;2022-10-16T01:21:46;100676.28;;;11.03;73.08
33554;BME280;19885;42.208;24.952;2022-10-16T01:24:43;100680.59;;;11.01;73.05
33554;BME280;19885;42.208;24.952;2022-10-16T01:32:40;100695.28;;;10.98;73.99
33554;BME280;19885;42.208;24.952;2022-10-16T01:35:14;100689.19;;;10.97;74.04
33554;BME280;19885;42.208;24.952;2022-10-16T01:40:19;100680.34;;;10.89;73.77
33554;BME280;19885;42.208;24.952;2022-10-16T01:42:50;100690.81;;;10.91;73.02
33554;BME280;19885;42.208;24.952;2022-10-16T01:45:19;100690.72;;;10.86;73.62
33554;BME280;19885;42.208;24.952;2022-10-16T01:47:46;100695.00;;;10.83;73.46
33554;BME280;19885;42.208;24.952;2022-10-16T01:50:15;100699.41;;;10.85;74.55
33554;BME280;19885;42.208;24.952;2022-10-16T01:52:45;100692.56;;;10.90;74.58
33554;BME280;19885;42.208;24.952;2022-10-16T01:55:16;100697.81;;;10.93;74.08
33554;BME280;19885;42.208;24.952;2022-10-16T01:57:46;100697.94;;;10.99;74.25
33554;BME280;19885;42.208;24.952;2022-10-16T02:00:17;100698.88;;;11.04;74.40
33554;BME280;19885;42.208;24.952;2022-10-16T02:02:47;100703.34;;;11.10;73.83
33554;BME280;19885;42.208;24.952;2022-10-16T02:05:23;100705.22;;;11.18;74.09
33554;BME280;19885;42.208;24.952;2022-10-16T02:07:50;100697.31;;;11.12;73.91
33554;BME280;19885;42.208;24.952;2022-10-16T02:10:16;100704.41;;;11.19;73.44
33554;BME280;19885;42.208;24.952;2022-10-16T02:12:48;100706.19;;;11.22;73.65
33554;BME280;19885;42.208;24.952;2022-10-16T02:15:15;100696.59;;;11.22;73.27
33554;BME280;19885;42.208;24.952;2022-10-16T02:17:41;100706.19;;;11.22;72.51
33554;BME280;19885;42.208;24.952;2022-10-16T02:20:07;100700.91;;;11.19;73.56
33554;BME280;19885;42.208;24.952;2022-10-16T02:22:46;100709.69;;;11.24;73.90
33554;BME280;19885;42.208;24.952;2022-10-16T02:27:55;100715.91;;;11.30;73.21
33554;BME280;19885;42.208;24.952;2022-10-16T02:30:45;100716.81;;;11.34;73.07
33554;BME280;19885;42.208;24.952;2022-10-16T02:33:16;100708.88;;;11.26;73.39
33554;BME280;19885;42.208;24.952;2022-10-16T02:35:46;100699.34;;;11.28;73.42
33554;BME280;19885;42.208;24.952;2022-10-16T02:38:15;100694.97;;;11.29;73.57
33554;BME280;19885;42.208;24.952;2022-10-16T02:40:41;100712.47;;;11.33;72.99
33554;BME280;19885;42.208;24.952;2022-10-16T02:43:08;100709.72;;;11.27;73.75
33554;BME280;19885;42.208;24.952;2022-10-16T02:45:34;100716.69;;;11.26;74.31
33554;BME280;19885;42.208;24.952;2022-10-16T02:48:00;100725.38;;;11.25;74.01
33554;BME280;19885;42.208;24.952;2022-10-16T02:50:26;100716.66;;;11.25;73.67
33554;BME280;19885;42.208;24.952;2022-10-16T02:52:52;100720.16;;;11.27;73.39
33554;BME280;19885;42.208;24.952;2022-10-16T02:55:17;100728.88;;;11.27;73.08
33554;BME280;19885;42.208;24.952;2022-10-16T02:57:46;100738.19;;;11.13;73.41
33554;BME280;19885;42.208;24.952;2022-10-16T03:00:13;100743.47;;;11.16;73.81
33554;BME280;19885;42.208;24.952;2022-10-16T03:02:39;100744.38;;;11.18;73.79
33554;BME280;19885;42.208;24.952;2022-10-16T03:05:05;100740.00;;;11.17;73.52
33554;BME280;19885;42.208;24.952;2022-10-16T03:07:31;100746.97;;;11.18;73.49
33554;BME280;19885;42.208;24.952;2022-10-16T03:09:56;100738.13;;;11.10;74.81
33554;BME280;19885;42.208;24.952;2022-10-16T03:12:28;100744.28;;;11.14;73.44
33554;BME280;19885;42.208;24.952;2022-10-16T03:14:56;100745.09;;;11.11;74.03
33554;BME280;19885;42.208;24.952;2022-10-16T03:17:23;100740.63;;;11.04;74.81
33554;BME280;19885;42.208;24.952;2022-10-16T03:19:49;100737.91;;;10.98;74.34
33554;BME280;19885;42.208;24.952;2022-10-16T03:22:15;100748.25;;;10.95;74.67
33554;BME280;19885;42.208;24.952;2022-10-16T03:24:40;100752.81;;;10.62;74.72
33554;BME280;19885;42.208;24.952;2022-10-16T03:27:06;100755.72;;;10.77;75.84
33554;BME280;19885;42.208;24.952;2022-10-16T03:29:32;100751.19;;;10.67;75.08
33554;BME280;19885;42.208;24.952;2022-10-16T03:32:00;100718.63;;;10.47;75.14
33554;BME280;19885;42.208;24.952;2022-10-16T03:34:26;100758.16;;;10.68;75.51
33554;BME280;19885;42.208;24.952;2022-10-16T03:36:52;100757.22;;;10.64;75.69
33554;BME280;19885;42.208;24.952;2022-10-16T03:39:18;100760.56;;;10.59;74.08
33554;BME280;19885;42.208;24.952;2022-10-16T03:41:43;100762.13;;;10.49;74.83
33554;BME280;19885;42.208;24.952;2022-10-16T03:44:14;100758.44;;;10.41;75.42
33554;BME280;19885;42.208;24.952;2022-10-16T03:46:42;100776.72;;;10.43;75.58
33554;BME280;19885;42.208;24.952;2022-10-16T03:49:07;100774.94;;;10.40;76.37
33554;BME280;19885;42.208;24.952;2022-10-16T03:51:33;100769.56;;;10.33;74.22
33554;BME280;19885;42.208;24.952;2022-10-16T03:53:58;100778.22;;;10.32;75.36
33554;BME280;19885;42.208;24.952;2022-10-16T03:56:24;100773.75;;;10.26;75.76
33554;BME280;19885;42.208;24.952;2022-10-16T03:58:49;100770.25;;;10.24;75.21
33554;BME280;19885;42.208;24.952;2022-10-16T04:01:15;100774.41;;;10.18;75.14
33554;BME280;19885;42.208;24.952;2022-10-16T04:03:41;100778.47;;;10.06;75.95
33554;BME280;19885;42.208;24.952;2022-10-16T04:06:08;100781.91;;;10.05;76.60
33554;BME280;19885;42.208;24.952;2022-10-16T04:08:34;100759.88;;;9.91;77.24
33554;BME280;19885;42.208;24.952;2022-10-16T04:11:02;100770.44;;;9.97;76.84
33554;BME280;19885;42.208;24.952;2022-10-16T04:13:28;100744.84;;;9.80;76.76
33554;BME280;19885;42.208;24.952;2022-10-16T04:15:54;100773.78;;;9.92;76.42
33554;BME280;19885;42.208;24.952;2022-10-16T04:18:20;100769.47;;;9.92;77.45
33554;BME280;19885;42.208;24.952;2022-10-16T04:20:45;100776.53;;;9.98;77.76
33554;BME280;19885;42.208;24.952;2022-10-16T04:23:11;100777.38;;;9.97;77.93
33554;BME280;19885;42.208;24.952;2022-10-16T04:25:36;100772.19;;;9.98;78.30
33554;BME280;19885;42.208;24.952;2022-10-16T04:28:02;100771.44;;;10.02;78.06
33554;BME280;19885;42.208;24.952;2022-10-16T04:30:28;100775.84;;;10.06;77.66
33554;BME280;19885;42.208;24.952;2022-10-16T04:32:55;100770.69;;;10.08;77.92
33554;BME280;19885;42.208;24.952;2022-10-16T04:35:21;100738.13;;;9.89;77.42
33554;BME280;19885;42.208;24.952;2022-10-16T04:37:49;100776.09;;;10.16;78.29
33554;BME280;19885;42.208;24.952;2022-10-16T04:40:16;100781.47;;;10.22;78.50
33554;BME280;19885;42.208;24.952;2022-10-16T04:42:41;100786.69;;;10.22;77.97
33554;BME280;19885;42.208;24.952;2022-10-16T04:45:07;100784.28;;;10.31;77.38
33554;BME280;19885;42.208;24.952;2022-10-16T04:47:33;100786.81;;;10.29;77.15
33554;BME280;19885;42.208;24.952;2022-10-16T04:49:59;100795.53;;;10.30;78.47
33554;BME280;19885;42.208;24.952;2022-10-16T04:52:28;100795.63;;;10.33;78.10
33554;BME280;19885;42.208;24.952;2022-10-16T04:54:53;100796.63;;;10.39;77.37
33554;BME280;19885;42.208;24.952;2022-10-16T04:57:20;100785.28;;;10.37;76.72
33554;BME280;19885;42.208;24.952;2022-10-16T04:59:46;100788.78;;;10.38;77.15
33554;BME280;19885;42.208;24.952;2022-10-16T05:02:11;100759.06;;;10.30;77.44
33554;BME280;19885;42.208;24.952;2022-10-16T05:04:36;100797.84;;;10.55;76.69
33554;BME280;19885;42.208;24.952;2022-10-16T05:07:02;100797.91;;;10.58;76.73
33554;BME280;19885;42.208;24.952;2022-10-16T05:09:27;100795.41;;;10.62;76.86
33554;BME280;19885;42.208;24.952;2022-10-16T05:11:53;100796.53;;;10.75;76.49
33554;BME280;19885;42.208;24.952;2022-10-16T05:14:19;100801.22;;;10.91;75.91
33554;BME280;19885;42.208;24.952;2022-10-16T05:16:44;100790.25;;;11.09;75.39
33554;BME280;19885;42.208;24.952;2022-10-16T05:19:10;100795.63;;;11.16;75.56
33554;BME280;19885;42.208;24.952;2022-10-16T05:21:35;100802.66;;;11.20;76.01
33554;BME280;19885;42.208;24.952;2022-10-16T05:24:01;100801.03;;;11.25;75.47
33554;BME280;19885;42.208;24.952;2022-10-16T05:26:26;100811.47;;;11.27;75.66
33554;BME280;19885;42.208;24.952;2022-10-16T05:28:52;100815.06;;;11.30;76.03
33554;BME280;19885;42.208;24.952;2022-10-16T05:31:17;100815.09;;;11.33;75.72
33554;BME280;19885;42.208;24.952;2022-10-16T05:33:43;100823.88;;;11.38;76.22
33554;BME280;19885;42.208;24.952;2022-10-16T05:36:09;100827.56;;;11.48;75.29
33554;BME280;19885;42.208;24.952;2022-10-16T05:38:36;100832.06;;;11.57;74.89
33554;BME280;19885;42.208;24.952;2022-10-16T05:41:03;100831.38;;;11.67;75.11
33554;BME280;19885;42.208;24.952;2022-10-16T05:43:29;100834.91;;;11.67;75.12
33554;BME280;19885;42.208;24.952;2022-10-16T05:48:21;100844.56;;;11.73;74.32
33554;BME280;19885;42.208;24.952;2022-10-16T05:50:46;100841.13;;;11.74;75.68
33554;BME280;19885;42.208;24.952;2022-10-16T05:53:12;100855.09;;;11.76;75.01
33554;BME280;19885;42.208;24.952;2022-10-16T05:55:37;100857.75;;;11.79;75.30
33554;BME280;19885;42.208;24.952;2022-10-16T05:58:02;100851.69;;;11.81;75.54
33554;BME280;19885;42.208;24.952;2022-10-16T06:00:28;100857.84;;;11.85;75.14
33554;BME280;19885;42.208;24.952;2022-10-16T06:02:53;100835.16;;;11.81;75.38
33554;BME280;19885;42.208;24.952;2022-10-16T06:05:19;100868.63;;;12.03;74.94
33554;BME280;19885;42.208;24.952;2022-10-16T06:07:44;100873.75;;;11.98;75.67
33554;BME280;19885;42.208;24.952;2022-10-16T06:10:10;100870.41;;;12.07;75.16
33554;BME280;19885;42.208;24.952;2022-10-16T06:12:35;100872.50;;;12.26;74.80
33554;BME280;19885;42.208;24.952;2022-10-16T06:15:01;100869.16;;;12.36;74.63
33554;BME280;19885;42.208;24.952;2022-10-16T06:17:26;100869.28;;;12.42;73.86
33554;BME280;19885;42.208;24.952;2022-10-16T06:19:52;100870.97;;;12.40;73.82
33554;BME280;19885;42.208;24.952;2022-10-16T06:22:17;100872.78;;;12.44;74.15
33554;BME280;19885;42.208;24.952;2022-10-16T06:24:42;100876.91;;;12.32;75.48
33554;BME280;19885;42.208;24.952;2022-10-16T06:27:08;100881.19;;;12.27;75.75
33554;BME280;19885;42.208;24.952;2022-10-16T06:29:34;100869.53;;;12.60;74.73
33554;BME280;19885;42.208;24.952;2022-10-16T06:31:59;100872.44;;;12.80;74.08
33554;BME280;19885;42.208;24.952;2022-10-16T06:34:25;100876.94;;;12.90;73.47
33554;BME280;19885;42.208;24.952;2022-10-16T06:36:50;100879.66;;;12.98;72.69
33554;BME280;19885;42.208;24.952;2022-10-16T06:39:16;100885.03;;;13.05;72.88
33554;BME280;19885;42.208;24.952;2022-10-16T06:41:42;100881.75;;;13.24;72.24
33554;BME280;19885;42.208;24.952;2022-10-16T06:44:07;100891.59;;;13.42;71.98
33554;BME280;19885;42.208;24.952;2022-10-16T06:46:33;100887.47;;;13.62;71.18
33554;BME280;19885;42.208;24.952;2022-10-16T06:49:00;100888.16;;;13.46;71.58
33554;BME280;19885;42.208;24.952;2022-10-16T06:51:25;100896.31;;;13.73;69.93
33554;BME280;19885;42.208;24.952;2022-10-16T06:53:53;100912.13;;;13.81;70.13
33554;BME280;19885;42.208;24.952;2022-10-16T06:56:22;100906.53;;;14.35;68.43
33554;BME280;19885;42.208;24.952;2022-10-16T06:58:48;100904.88;;;14.46;67.35
33554;BME280;19885;42.208;24.952;2022-10-16T07:01:15;100903.19;;;14.54;67.41
33554;BME280;19885;42.208;24.952;2022-10-16T07:03:42;100900.66;;;14.63;66.83
33554;BME280;19885;42.208;24.952;2022-10-16T07:06:10;100900.69;;;14.69;66.40
33554;BME280;19885;42.208;24.952;2022-10-16T07:08:38;100893.63;;;14.63;66.78
33554;BME280;19885;42.208;24.952;2022-10-16T07:11:06;100900.66;;;14.63;66.96
33554;BME280;19885;42.208;24.952;2022-10-16T07:13:33;100901.59;;;14.77;66.03
33554;BME280;19885;42.208;24.952;2022-10-16T07:16:07;100901.66;;;14.84;66.39
33554;BME280;19885;42.208;24.952;2022-10-16T07:18:34;100900.81;;;14.90;66.92
33554;BME280;19885;42.208;24.952;2022-10-16T07:21:10;100908.75;;;15.02;66.00
33554;BME280;19885;42.208;24.952;2022-10-16T07:23:36;100906.16;;;15.05;67.16
33554;BME280;19885;42.208;24.952;2022-10-16T07:26:06;100902.72;;;15.21;65.21
33554;BME280;19885;42.208;24.952;2022-10-16T07:28:33;100908.88;;;15.29;65.36
33554;BME280;19885;42.208;24.952;2022-10-16T07:31:07;100906.28;;;15.31;65.71
33554;BME280;19885;42.208;24.952;2022-10-16T07:33:36;100906.34;;;15.47;65.78
33554;BME280;19885;42.208;24.952;2022-10-16T07:36:04;100902.91;;;15.59;64.87
33554;BME280;19885;42.208;24.952;2022-10-16T07:38:29;100906.44;;;15.72;64.27
33554;BME280;19885;42.208;24.952;2022-10-16T07:40:59;100903.88;;;15.96;63.56
33554;BME280;19885;42.208;24.952;2022-10-16T07:43:26;100897.75;;;16.03;62.47
33554;BME280;19885;42.208;24.952;2022-10-16T07:45:54;100900.38;;;16.21;62.83
33554;BME280;19885;42.208;24.952;2022-10-16T07:48:20;100902.16;;;16.37;61.97
33554;BME280;19885;42.208;24.952;2022-10-16T07:50:46;100903.88;;;16.50;61.72
33554;BME280;19885;42.208;24.952;2022-10-16T07:53:12;100904.78;;;16.76;59.84
33554;BME280;19885;42.208;24.952;2022-10-16T07:55:40;100892.47;;;16.92;59.77
33554;BME280;19885;42.208;24.952;2022-10-16T07:58:05;100904.72;;;17.02;59.13
33554;BME280;19885;42.208;24.952;2022-10-16T08:00:32;100901.16;;;17.17;58.91
33554;BME280;19885;42.208;24.952;2022-10-16T08:02:58;100904.69;;;17.17;59.73
33554;BME280;19885;42.208;24.952;2022-10-16T08:05:30;100909.03;;;17.26;58.51
33554;BME280;19885;42.208;24.952;2022-10-16T08:07:57;100900.19;;;17.39;58.37
33554;BME280;19885;42.208;24.952;2022-10-16T08:10:24;100903.69;;;17.53;57.96
33554;BME280;19885;42.208;24.952;2022-10-16T08:12:54;100906.91;;;18.03;57.17
33554;BME280;19885;42.208;24.952;2022-10-16T08:15:20;100899.84;;;18.04;56.92
33554;BME280;19885;42.208;24.952;2022-10-16T08:17:57;100900.72;;;18.04;56.30
33554;BME280;19885;42.208;24.952;2022-10-16T08:20:23;100884.66;;;18.34;55.81
33554;BME280;19885;42.208;24.952;2022-10-16T08:22:48;100886.28;;;18.52;55.04
33554;BME280;19885;42.208;24.952;2022-10-16T08:25:14;100869.41;;;18.71;52.81
33554;BME280;19885;42.208;24.952;2022-10-16T08:27:39;100886.91;;;18.83;53.20
33554;BME280;19885;42.208;24.952;2022-10-16T08:30:05;100884.28;;;18.80;53.17
33554;BME280;19885;42.208;24.952;2022-10-16T08:32:32;100861.53;;;18.64;52.83
33554;BME280;19885;42.208;24.952;2022-10-16T08:34:57;100892.06;;;18.90;53.96
33554;BME280;19885;42.208;24.952;2022-10-16T08:37:22;100891.00;;;19.06;51.47
33554;BME280;19885;42.208;24.952;2022-10-16T08:39:48;100886.59;;;19.10;51.61
33554;BME280;19885;42.208;24.952;2022-10-16T08:50:18;100895.88;;;19.46;51.68
33554;BME280;19885;42.208;24.952;2022-10-16T08:52:48;100888.69;;;19.55;50.30
33554;BME280;19885;42.208;24.952;2022-10-16T08:57:53;100892.94;;;19.67;49.77
33554;BME280;19885;42.208;24.952;2022-10-16T09:00:19;100879.81;;;19.59;50.12
33554;BME280;19885;42.208;24.952;2022-10-16T09:02:55;100890.03;;;19.85;50.06
33554;BME280;19885;42.208;24.952;2022-10-16T09:08:06;100889.59;;;20.14;47.40
33554;BME280;19885;42.208;24.952;2022-10-16T09:10:38;100889.81;;;20.55;47.55
33554;BME280;19885;42.208;24.952;2022-10-16T09:13:23;100872.78;;;20.68;46.32
33554;BME280;19885;42.208;24.952;2022-10-16T09:21:30;100886.03;;;20.16;44.91
33554;BME280;19885;42.208;24.952;2022-10-16T09:23:58;100883.19;;;20.30;43.34
33554;BME280;19885;42.208;24.952;2022-10-16T09:26:27;100890.22;;;20.31;42.65
33554;BME280;19885;42.208;24.952;2022-10-16T09:28:53;100875.81;;;20.48;43.55
33554;BME280;19885;42.208;24.952;2022-10-16T09:31:20;100880.47;;;20.34;42.63
33554;BME280;19885;42.208;24.952;2022-10-16T09:33:59;100881.38;;;19.74;44.55
33554;BME280;19885;42.208;24.952;2022-10-16T09:36:27;100871.19;;;20.05;44.74
33554;BME280;19885;42.208;24.952;2022-10-16T09:39:06;100872.91;;;20.60;45.18
33554;BME280;19885;42.208;24.952;2022-10-16T09:41:45;100871.75;;;20.77;42.67
33554;BME280;19885;42.208;24.952;2022-10-16T09:44:28;100867.19;;;21.30;43.36
33554;BME280;19885;42.208;24.952;2022-10-16T09:47:25;100876.13;;;21.65;40.91
33554;BME280;19885;42.208;24.952;2022-10-16T09:52:22;100856.75;;;21.61;40.18
33554;BME280;19885;42.208;24.952;2022-10-16T09:54:53;100849.41;;;21.74;41.68
33554;BME280;19885;42.208;24.952;2022-10-16T09:57:19;100853.03;;;21.70;42.27
33554;BME280;19885;42.208;24.952;2022-10-16T09:59:51;100847.81;;;22.03;39.58
33554;BME280;19885;42.208;24.952;2022-10-16T10:02:19;100841.88;;;21.94;40.28
33554;BME280;19885;42.208;24.952;2022-10-16T10:04:51;100840.47;;;21.76;40.03
33554;BME280;19885;42.208;24.952;2022-10-16T10:07:32;100849.97;;;21.88;40.13
33554;BME280;19885;42.208;24.952;2022-10-16T10:10:01;100844.22;;;22.06;40.43
33554;BME280;19885;42.208;24.952;2022-10-16T10:12:29;100832.53;;;22.15;39.70
33554;BME280;19885;42.208;24.952;2022-10-16T10:15:10;100838.50;;;22.23;40.69
33554;BME280;19885;42.208;24.952;2022-10-16T10:17:46;100842.00;;;22.58;38.28
33554;BME280;19885;42.208;24.952;2022-10-16T10:20:30;100840.88;;;22.68;37.79
33554;BME280;19885;42.208;24.952;2022-10-16T10:22:58;100833.91;;;22.29;39.92
33554;BME280;19885;42.208;24.952;2022-10-16T10:25:39;100834.63;;;22.69;38.96
33554;BME280;19885;42.208;24.952;2022-10-16T10:31:03;100830.25;;;22.99;37.77
33554;BME280;19885;42.208;24.952;2022-10-16T10:33:53;100824.78;;;23.04;39.54
33554;BME280;19885;42.208;24.952;2022-10-16T10:36:28;100820.41;;;23.03;36.76
33554;BME280;19885;42.208;24.952;2022-10-16T10:39:16;100767.38;;;22.97;37.31
33554;BME280;19885;42.208;24.952;2022-10-16T10:44:26;100812.69;;;23.54;37.17
33554;BME280;19885;42.208;24.952;2022-10-16T10:55:15;100802.38;;;23.43;37.67
33554;BME280;19885;42.208;24.952;2022-10-16T11:03:20;100790.72;;;23.75;36.88
33554;BME280;19885;42.208;24.952;2022-10-16T11:05:52;100796.31;;;23.93;36.12
33554;BME280;19885;42.208;24.952;2022-10-16T11:11:02;100797.78;;;24.30;34.82
33554;BME280;19885;42.208;24.952;2022-10-16T11:13:39;100789.53;;;24.11;34.93
33554;BME280;19885;42.208;24.952;2022-10-16T11:19:41;100772.13;;;23.99;34.80
33554;BME280;19885;42.208;24.952;2022-10-16T11:22:21;100785.44;;;23.99;36.27
33554;BME280;19885;42.208;24.952;2022-10-16T11:27:55;100789.16;;;23.68;33.87
33554;BME280;19885;42.208;24.952;2022-10-16T11:30:27;100778.50;;;23.68;34.47
33554;BME280;19885;42.208;24.952;2022-10-16T11:35:39;100768.81;;;23.65;33.82
33554;BME280;19885;42.208;24.952;2022-10-16T11:40:48;100775.53;;;23.51;34.62
33554;BME280;19885;42.208;24.952;2022-10-16T11:43:37;100765.50;;;23.29;36.48
33554;BME280;19885;42.208;24.952;2022-10-16T11:46:17;100774.03;;;22.82;36.12
33554;BME280;19885;42.208;24.952;2022-10-16T11:48:52;100764.00;;;22.59;36.95
33554;BME280;19885;42.208;24.952;2022-10-16T11:56:38;100768.59;;;22.87;36.73
33554;BME280;19885;42.208;24.952;2022-10-16T12:01:57;100777.22;;;22.62;35.51
33554;BME280;19885;42.208;24.952;2022-10-16T12:04:33;100772.81;;;22.94;36.85
33554;BME280;19885;42.208;24.952;2022-10-16T12:07:08;100772.31;;;22.80;36.57
33554;BME280;19885;42.208;24.952;2022-10-16T12:09:38;100747.78;;;23.01;35.74
33554;BME280;19885;42.208;24.952;2022-10-16T12:12:04;100769.50;;;23.15;34.61
33554;BME280;19885;42.208;24.952;2022-10-16T12:14:36;100768.19;;;23.00;36.27
33554;BME280;19885;42.208;24.952;2022-10-16T12:17:24;100763.59;;;22.42;36.00
33554;BME280;19885;42.208;24.952;2022-10-16T12:20:40;100761.50;;;22.53;37.60
33554;BME280;19885;42.208;24.952;2022-10-16T12:23:19;100769.31;;;22.92;37.33
33554;BME280;19885;42.208;24.952;2022-10-16T12:25:54;100780.03;;;22.89;36.69
33554;BME280;19885;42.208;24.952;2022-10-16T12:28:25;100764.09;;;22.56;36.46
33554;BME280;19885;42.208;24.952;2022-10-16T12:31:01;100763.53;;;22.45;36.10
33554;BME280;19885;42.208;24.952;2022-10-16T12:33:36;100767.75;;;22.52;36.73
33554;BME280;19885;42.208;24.952;2022-10-16T12:36:05;100765.03;;;22.55;37.03
33554;BME280;19885;42.208;24.952;2022-10-16T12:38:49;100755.75;;;21.69;36.88
33554;BME280;19885;42.208;24.952;2022-10-16T12:41:33;100771.91;;;21.58;38.23
33554;BME280;19885;42.208;24.952;2022-10-16T12:44:00;100777.13;;;21.63;37.28
33554;BME280;19885;42.208;24.952;2022-10-16T12:49:35;100772.69;;;21.25;37.54
33554;BME280;19885;42.208;24.952;2022-10-16T12:52:02;100783.13;;;20.91;39.34
33554;BME280;19885;42.208;24.952;2022-10-16T12:54:37;100782.34;;;20.86;39.66
33554;BME280;19885;42.208;24.952;2022-10-16T12:57:46;100776.44;;;21.16;38.85
33554;BME280;19885;42.208;24.952;2022-10-16T13:00:35;100779.72;;;21.66;38.50
33554;BME280;19885;42.208;24.952;2022-10-16T13:28:11;100779.88;;;21.96;40.32
33554;BME280;19885;42.208;24.952;2022-10-16T13:30:51;100791.16;;;21.68;36.21
33554;BME280;19885;42.208;24.952;2022-10-16T13:36:00;100785.56;;;21.80;37.84
33554;BME280;19885;42.208;24.952;2022-10-16T13:38:28;100783.22;;;21.29;37.04
33554;BME280;19885;42.208;24.952;2022-10-16T13:40:59;100780.69;;;21.23;37.23
33554;BME280;19885;42.208;24.952;2022-10-16T13:46:01;100780.25;;;21.02;38.38
33554;BME280;19885;42.208;24.952;2022-10-16T13:48:29;100785.91;;;20.84;38.31
33554;BME280;19885;42.208;24.952;2022-10-16T13:51:14;100789.41;;;20.86;38.13
33554;BME280;19885;42.208;24.952;2022-10-16T13:53:44;100790.25;;;20.89;38.38
33554;BME280;19885;42.208;24.952;2022-10-16T13:56:12;100785.81;;;20.88;38.80
33554;BME280;19885;42.208;24.952;2022-10-16T13:58:38;100752.06;;;20.55;39.04
33554;BME280;19885;42.208;24.952;2022-10-16T14:01:18;100781.91;;;20.63;39.10
33554;BME280;19885;42.208;24.952;2022-10-16T14:03:46;100787.69;;;20.39;39.02
33554;BME280;19885;42.208;24.952;2022-10-16T14:06:18;100796.69;;;20.29;39.13
33554;BME280;19885;42.208;24.952;2022-10-16T14:09:00;100785.28;;;20.25;39.04
33554;BME280;19885;42.208;24.952;2022-10-16T14:11:27;100788.81;;;20.26;39.25
33554;BME280;19885;42.208;24.952;2022-10-16T14:13:54;100786.09;;;20.29;39.47
33554;BME280;19885;42.208;24.952;2022-10-16T14:16:29;100791.06;;;20.47;39.79
33554;BME280;19885;42.208;24.952;2022-10-16T14:18:56;100789.53;;;20.34;40.16
33554;BME280;19885;42.208;24.952;2022-10-16T14:21:23;100790.50;;;20.30;39.93
33554;BME280;19885;42.208;24.952;2022-10-16T14:23:49;100796.78;;;20.24;40.38
33554;BME280;19885;42.208;24.952;2022-10-16T14:26:19;100794.28;;;20.14;39.99
33554;BME280;19885;42.208;24.952;2022-10-16T14:28:47;100791.56;;;20.18;39.76
33554;BME280;19885;42.208;24.952;2022-10-16T14:31:27;100791.75;;;20.08;39.82
33554;BME280;19885;42.208;24.952;2022-10-16T14:33:53;100796.94;;;20.14;39.46
33554;BME280;19885;42.208;24.952;2022-10-16T14:36:19;100788.47;;;19.93;39.17
33554;BME280;19885;42.208;24.952;2022-10-16T14:38:58;100801.81;;;19.86;40.45
33554;BME280;19885;42.208;24.952;2022-10-16T14:41:26;100804.44;;;19.87;40.06
33554;BME280;19885;42.208;24.952;2022-10-16T14:43:56;100809.66;;;19.90;39.51
33554;BME280;19885;42.208;24.952;2022-10-16T14:46:33;100809.81;;;19.81;40.15